Mount Sterling-Montgomery County (IOB)

 

Airport Diagram
No Airport Diagram Available
Current Weather/Forecast (IFR Conditions)
METAR KIOB 211355Z AUTO 25009KT 10SM OVC007 02/01 A2994 RMK AO2
TAF

Airport Information

All Charts
General
Chart Name View
TAKEOFF MINIMUMS
TAKEOFF MINIMUMS

Approaches
Chart Name Download
RNAV (GPS) RWY 03
RNAV (GPS) RWY 21
NDB RWY 03
NDB RWY 21
RNAV (GPS) RWY 03
RNAV (GPS) RWY 21
NDB RWY 03
NDB RWY 21


Airport Statistics
Departures Arrivals Local
All Collected Stats since June 2016: 8 8 0
2021 Stats: 0 1 0
January Stats: 0 1 0

Inbound Traffic (Arrivals) - 0

No inbound traffic.


Outbound Traffic (Departures) - 0

No outbound traffic.


Local Traffic (Pattern) - 0

No local traffic.